sensor_id;sensor_type;location;lat;lon;timestamp;temperature;humidity
67273;DHT22;54190;49.770;9.250;2022-11-20T00:01:19;1.70;99.90
67273;DHT22;54190;49.770;9.250;2022-11-20T00:03:45;1.70;99.90
67273;DHT22;54190;49.770;9.250;2022-11-20T00:06:14;1.70;99.90
67273;DHT22;54190;49.770;9.250;2022-11-20T00:08:39;1.70;99.90
67273;DHT22;54190;49.770;9.250;2022-11-20T00:11:13;1.70;99.90
67273;DHT22;54190;49.770;9.250;2022-11-20T00:13:40;1.70;99.90
67273;DHT22;54190;49.770;9.250;2022-11-20T00:16:08;1.80;99.90
67273;DHT22;54190;49.770;9.250;2022-11-20T00:18:34;1.80;99.90
67273;DHT22;54190;49.770;9.250;2022-11-20T00:21:11;1.90;99.90
67273;DHT22;54190;49.770;9.250;2022-11-20T00:23:37;1.90;99.90
67273;DHT22;54190;49.770;9.250;2022-11-20T00:26:08;1.90;99.90
67273;DHT22;54190;49.770;9.250;2022-11-20T00:28:34;1.80;99.90
67273;DHT22;54190;49.770;9.250;2022-11-20T00:31:09;1.80;99.90
67273;DHT22;54190;49.770;9.250;2022-11-20T00:33:35;1.70;99.90
67273;DHT22;54190;49.770;9.250;2022-11-20T00:36:06;1.70;99.90
67273;DHT22;54190;49.770;9.250;2022-11-20T00:38:33;1.70;99.90
67273;DHT22;54190;49.770;9.250;2022-11-20T00:41:04;1.80;99.90
67273;DHT22;54190;49.770;9.250;2022-11-20T00:43:30;1.70;99.90
67273;DHT22;54190;49.770;9.250;2022-11-20T00:48:23;1.70;99.90
67273;DHT22;54190;49.770;9.250;2022-11-20T00:50:48;1.70;99.90
67273;DHT22;54190;49.770;9.250;2022-11-20T00:53:14;1.70;99.90
67273;DHT22;54190;49.770;9.250;2022-11-20T00:55:40;1.60;99.90
67273;DHT22;54190;49.770;9.250;2022-11-20T00:58:06;1.60;99.90
67273;DHT22;54190;49.770;9.250;2022-11-20T01:00:32;1.60;99.90
67273;DHT22;54190;49.770;9.250;2022-11-20T01:02:57;1.60;99.90
67273;DHT22;54190;49.770;9.250;2022-11-20T01:05:23;1.70;99.90
67273;DHT22;54190;49.770;9.250;2022-11-20T01:07:49;1.60;99.90
67273;DHT22;54190;49.770;9.250;2022-11-20T01:10:14;1.60;99.90
67273;DHT22;54190;49.770;9.250;2022-11-20T01:12:40;1.60;99.90
67273;DHT22;54190;49.770;9.250;2022-11-20T01:15:06;1.50;99.90
67273;DHT22;54190;49.770;9.250;2022-11-20T01:17:32;1.50;99.90
67273;DHT22;54190;49.770;9.250;2022-11-20T01:19:58;1.50;99.90
67273;DHT22;54190;49.770;9.250;2022-11-20T01:22:23;1.50;99.90
67273;DHT22;54190;49.770;9.250;2022-11-20T01:24:52;1.50;99.90
67273;DHT22;54190;49.770;9.250;2022-11-20T01:27:18;1.50;99.90
67273;DHT22;54190;49.770;9.250;2022-11-20T01:29:43;1.50;99.90
67273;DHT22;54190;49.770;9.250;2022-11-20T01:32:09;1.50;99.90
67273;DHT22;54190;49.770;9.250;2022-11-20T01:34:34;1.50;99.90
67273;DHT22;54190;49.770;9.250;2022-11-20T01:37:00;1.50;99.90
67273;DHT22;54190;49.770;9.250;2022-11-20T01:39:26;1.60;99.90
67273;DHT22;54190;49.770;9.250;2022-11-20T01:41:53;1.80;99.90
67273;DHT22;54190;49.770;9.250;2022-11-20T01:44:52;1.80;99.90
67273;DHT22;54190;49.770;9.250;2022-11-20T01:47:23;1.90;99.90
67273;DHT22;54190;49.770;9.250;2022-11-20T01:49:54;1.90;99.90
67273;DHT22;54190;49.770;9.250;2022-11-20T01:52:36;1.90;99.90
67273;DHT22;54190;49.770;9.250;2022-11-20T01:55:17;1.90;99.90
67273;DHT22;54190;49.770;9.250;2022-11-20T01:57:44;2.00;99.90
67273;DHT22;54190;49.770;9.250;2022-11-20T02:00:14;2.00;99.90
67273;DHT22;54190;49.770;9.250;2022-11-20T02:02:43;2.00;99.90
67273;DHT22;54190;49.770;9.250;2022-11-20T02:05:23;2.00;99.90
67273;DHT22;54190;49.770;9.250;2022-11-20T02:07:49;1.90;99.90
67273;DHT22;54190;49.770;9.250;2022-11-20T02:10:15;1.90;99.90
67273;DHT22;54190;49.770;9.250;2022-11-20T02:12:41;1.90;99.90
67273;DHT22;54190;49.770;9.250;2022-11-20T02:15:25;1.90;99.90
67273;DHT22;54190;49.770;9.250;2022-11-20T02:17:51;1.80;99.90
67273;DHT22;54190;49.770;9.250;2022-11-20T02:20:17;1.70;99.90
67273;DHT22;54190;49.770;9.250;2022-11-20T02:23:08;1.70;99.90
67273;DHT22;54190;49.770;9.250;2022-11-20T02:25:38;1.70;99.90
67273;DHT22;54190;49.770;9.250;2022-11-20T02:28:05;1.80;99.90
67273;DHT22;54190;49.770;9.250;2022-11-20T02:30:31;1.80;99.90
67273;DHT22;54190;49.770;9.250;2022-11-20T02:32:57;1.80;99.90
67273;DHT22;54190;49.770;9.250;2022-11-20T02:37:52;1.80;99.90
67273;DHT22;54190;49.770;9.250;2022-11-20T02:40:18;1.90;99.90
67273;DHT22;54190;49.770;9.250;2022-11-20T02:42:44;1.90;99.90
67273;DHT22;54190;49.770;9.250;2022-11-20T02:45:10;1.90;99.90
67273;DHT22;54190;49.770;9.250;2022-11-20T02:47:36;1.90;99.90
67273;DHT22;54190;49.770;9.250;2022-11-20T02:50:03;1.90;99.90
67273;DHT22;54190;49.770;9.250;2022-11-20T02:52:29;1.90;99.90
67273;DHT22;54190;49.770;9.250;2022-11-20T02:54:55;2.00;99.90
67273;DHT22;54190;49.770;9.250;2022-11-20T02:57:21;1.90;99.90
67273;DHT22;54190;49.770;9.250;2022-11-20T02:59:46;2.00;99.90
67273;DHT22;54190;49.770;9.250;2022-11-20T03:02:12;2.00;99.90
67273;DHT22;54190;49.770;9.250;2022-11-20T03:04:38;2.00;99.90
67273;DHT22;54190;49.770;9.250;2022-11-20T03:07:04;2.00;99.90
67273;DHT22;54190;49.770;9.250;2022-11-20T03:09:30;1.90;99.90
67273;DHT22;54190;49.770;9.250;2022-11-20T03:11:56;1.90;99.90
67273;DHT22;54190;49.770;9.250;2022-11-20T03:14:22;1.90;99.90
67273;DHT22;54190;49.770;9.250;2022-11-20T03:16:47;1.80;99.90
67273;DHT22;54190;49.770;9.250;2022-11-20T03:19:13;1.80;99.90
67273;DHT22;54190;49.770;9.250;2022-11-20T03:21:39;1.80;99.90
67273;DHT22;54190;49.770;9.250;2022-11-20T03:24:05;1.80;99.90
67273;DHT22;54190;49.770;9.250;2022-11-20T03:26:31;1.80;99.90
67273;DHT22;54190;49.770;9.250;2022-11-20T03:29:00;1.80;99.90
67273;DHT22;54190;49.770;9.250;2022-11-20T03:31:32;1.80;99.90
67273;DHT22;54190;49.770;9.250;2022-11-20T03:33:58;1.90;99.90
67273;DHT22;54190;49.770;9.250;2022-11-20T03:36:25;1.90;99.90
67273;DHT22;54190;49.770;9.250;2022-11-20T03:38:52;2.00;99.90
67273;DHT22;54190;49.770;9.250;2022-11-20T03:41:20;2.00;99.90
67273;DHT22;54190;49.770;9.250;2022-11-20T03:43:48;2.00;99.90
67273;DHT22;54190;49.770;9.250;2022-11-20T03:46:14;2.00;99.90
67273;DHT22;54190;49.770;9.250;2022-11-20T03:48:40;2.00;99.90
67273;DHT22;54190;49.770;9.250;2022-11-20T03:53:43;2.10;99.90
67273;DHT22;54190;49.770;9.250;2022-11-20T03:56:10;2.20;99.90
67273;DHT22;54190;49.770;9.250;2022-11-20T03:58:37;2.20;99.90
67273;DHT22;54190;49.770;9.250;2022-11-20T04:01:09;2.20;99.90
67273;DHT22;54190;49.770;9.250;2022-11-20T04:03:36;2.20;99.90
67273;DHT22;54190;49.770;9.250;2022-11-20T04:06:06;2.20;99.90
67273;DHT22;54190;49.770;9.250;2022-11-20T04:08:32;2.20;99.90
67273;DHT22;54190;49.770;9.250;2022-11-20T04:11:12;2.20;99.90
67273;DHT22;54190;49.770;9.250;2022-11-20T04:13:39;2.20;99.90
67273;DHT22;54190;49.770;9.250;2022-11-20T04:16:06;2.20;99.90
67273;DHT22;54190;49.770;9.250;2022-11-20T04:18:32;2.10;99.90
67273;DHT22;54190;49.770;9.250;2022-11-20T04:20:58;2.10;99.90
67273;DHT22;54190;49.770;9.250;2022-11-20T04:23:24;2.10;99.90
67273;DHT22;54190;49.770;9.250;2022-11-20T04:25:50;2.10;99.90
67273;DHT22;54190;49.770;9.250;2022-11-20T04:28:16;2.20;99.90
67273;DHT22;54190;49.770;9.250;2022-11-20T04:30:42;2.20;99.90
67273;DHT22;54190;49.770;9.250;2022-11-20T04:33:07;2.30;99.90
67273;DHT22;54190;49.770;9.250;2022-11-20T04:35:37;2.30;99.90
67273;DHT22;54190;49.770;9.250;2022-11-20T04:38:03;2.40;99.90
67273;DHT22;54190;49.770;9.250;2022-11-20T04:40:30;2.40;99.90
67273;DHT22;54190;49.770;9.250;2022-11-20T04:42:55;2.40;99.90
67273;DHT22;54190;49.770;9.250;2022-11-20T04:45:24;2.40;99.90
67273;DHT22;54190;49.770;9.250;2022-11-20T04:47:50;2.40;99.90
67273;DHT22;54190;49.770;9.250;2022-11-20T04:50:15;2.40;99.90
67273;DHT22;54190;49.770;9.250;2022-11-20T04:52:41;2.40;99.90
67273;DHT22;54190;49.770;9.250;2022-11-20T04:55:07;2.40;99.90
67273;DHT22;54190;49.770;9.250;2022-11-20T04:57:33;2.40;99.90
67273;DHT22;54190;49.770;9.250;2022-11-20T04:59:59;2.20;99.90
67273;DHT22;54190;49.770;9.250;2022-11-20T05:02:25;2.20;99.90
67273;DHT22;54190;49.770;9.250;2022-11-20T05:04:50;2.20;99.90
67273;DHT22;54190;49.770;9.250;2022-11-20T05:07:16;2.10;99.90
67273;DHT22;54190;49.770;9.250;2022-11-20T05:09:42;2.20;99.90
67273;DHT22;54190;49.770;9.250;2022-11-20T05:12:08;2.20;99.90
67273;DHT22;54190;49.770;9.250;2022-11-20T05:14:34;2.30;99.90
67273;DHT22;54190;49.770;9.250;2022-11-20T05:17:00;2.30;99.90
67273;DHT22;54190;49.770;9.250;2022-11-20T05:19:25;2.30;99.90
67273;DHT22;54190;49.770;9.250;2022-11-20T05:21:51;2.30;99.90
67273;DHT22;54190;49.770;9.250;2022-11-20T05:24:17;2.40;99.90
67273;DHT22;54190;49.770;9.250;2022-11-20T05:26:42;2.40;99.90
67273;DHT22;54190;49.770;9.250;2022-11-20T05:29:10;2.30;99.90
67273;DHT22;54190;49.770;9.250;2022-11-20T05:31:39;2.30;99.90
67273;DHT22;54190;49.770;9.250;2022-11-20T05:34:05;2.30;99.90
67273;DHT22;54190;49.770;9.250;2022-11-20T05:36:31;2.20;99.90
67273;DHT22;54190;49.770;9.250;2022-11-20T05:38:57;2.10;99.90
67273;DHT22;54190;49.770;9.250;2022-11-20T05:41:22;2.10;99.90
67273;DHT22;54190;49.770;9.250;2022-11-20T05:43:49;2.10;99.90
67273;DHT22;54190;49.770;9.250;2022-11-20T05:46:16;2.00;99.90
67273;DHT22;54190;49.770;9.250;2022-11-20T05:48:43;2.00;99.90
67273;DHT22;54190;49.770;9.250;2022-11-20T05:51:11;2.00;99.90
67273;DHT22;54190;49.770;9.250;2022-11-20T05:53:37;2.10;99.90
67273;DHT22;54190;49.770;9.250;2022-11-20T05:56:06;2.20;99.90
67273;DHT22;54190;49.770;9.250;2022-11-20T05:58:33;2.30;99.90
67273;DHT22;54190;49.770;9.250;2022-11-20T06:01:17;2.30;99.90
67273;DHT22;54190;49.770;9.250;2022-11-20T06:03:43;2.40;99.90
67273;DHT22;54190;49.770;9.250;2022-11-20T06:06:13;2.40;99.90
67273;DHT22;54190;49.770;9.250;2022-11-20T06:08:39;2.40;99.90
67273;DHT22;54190;49.770;9.250;2022-11-20T06:11:07;2.40;99.90
67273;DHT22;54190;49.770;9.250;2022-11-20T06:13:33;2.50;99.90
67273;DHT22;54190;49.770;9.250;2022-11-20T06:15:59;2.50;99.90
67273;DHT22;54190;49.770;9.250;2022-11-20T06:18:27;2.40;99.90
67273;DHT22;54190;49.770;9.250;2022-11-20T06:21:11;2.50;99.90
67273;DHT22;54190;49.770;9.250;2022-11-20T06:23:37;2.40;99.90
67273;DHT22;54190;49.770;9.250;2022-11-20T06:26:05;2.50;99.90
67273;DHT22;54190;49.770;9.250;2022-11-20T06:28:31;2.50;99.90
67273;DHT22;54190;49.770;9.250;2022-11-20T06:30:57;2.40;99.90
67273;DHT22;54190;49.770;9.250;2022-11-20T06:33:24;2.30;99.90
67273;DHT22;54190;49.770;9.250;2022-11-20T06:35:50;2.30;99.90
67273;DHT22;54190;49.770;9.250;2022-11-20T06:38:15;2.30;99.90
67273;DHT22;54190;49.770;9.250;2022-11-20T06:40:41;2.20;99.90
67273;DHT22;54190;49.770;9.250;2022-11-20T06:43:10;2.30;99.90
67273;DHT22;54190;49.770;9.250;2022-11-20T06:45:36;2.30;99.90
67273;DHT22;54190;49.770;9.250;2022-11-20T06:48:02;2.40;99.90
67273;DHT22;54190;49.770;9.250;2022-11-20T06:50:28;2.40;99.90
67273;DHT22;54190;49.770;9.250;2022-11-20T06:52:53;2.40;99.90
67273;DHT22;54190;49.770;9.250;2022-11-20T06:55:19;2.40;99.90
67273;DHT22;54190;49.770;9.250;2022-11-20T06:57:45;2.40;99.90
67273;DHT22;54190;49.770;9.250;2022-11-20T07:00:11;2.40;99.90
67273;DHT22;54190;49.770;9.250;2022-11-20T07:02:37;2.40;99.90
67273;DHT22;54190;49.770;9.250;2022-11-20T07:05:03;2.30;99.90
67273;DHT22;54190;49.770;9.250;2022-11-20T07:07:29;2.30;99.90
67273;DHT22;54190;49.770;9.250;2022-11-20T07:09:54;2.30;99.90
67273;DHT22;54190;49.770;9.250;2022-11-20T07:12:20;2.30;99.90
67273;DHT22;54190;49.770;9.250;2022-11-20T07:14:46;2.20;99.90
67273;DHT22;54190;49.770;9.250;2022-11-20T07:17:12;2.20;99.90
67273;DHT22;54190;49.770;9.250;2022-11-20T07:19:38;2.30;99.90
67273;DHT22;54190;49.770;9.250;2022-11-20T07:22:03;2.20;99.90
67273;DHT22;54190;49.770;9.250;2022-11-20T07:24:29;2.30;99.90
67273;DHT22;54190;49.770;9.250;2022-11-20T07:26:55;2.40;99.90
67273;DHT22;54190;49.770;9.250;2022-11-20T07:29:21;2.40;99.90
67273;DHT22;54190;49.770;9.250;2022-11-20T07:31:46;2.40;99.90
67273;DHT22;54190;49.770;9.250;2022-11-20T07:34:12;2.40;99.90
67273;DHT22;54190;49.770;9.250;2022-11-20T07:36:38;2.50;99.90
67273;DHT22;54190;49.770;9.250;2022-11-20T07:39:04;2.40;99.90
67273;DHT22;54190;49.770;9.250;2022-11-20T07:41:29;2.50;99.90
67273;DHT22;54190;49.770;9.250;2022-11-20T07:43:55;2.50;99.90
67273;DHT22;54190;49.770;9.250;2022-11-20T07:46:21;2.50;99.90
67273;DHT22;54190;49.770;9.250;2022-11-20T07:48:46;2.50;99.90
67273;DHT22;54190;49.770;9.250;2022-11-20T07:51:12;2.60;99.90
67273;DHT22;54190;49.770;9.250;2022-11-20T07:53:38;2.60;99.90
67273;DHT22;54190;49.770;9.250;2022-11-20T07:56:04;2.70;99.90
67273;DHT22;54190;49.770;9.250;2022-11-20T07:58:30;2.70;99.90
67273;DHT22;54190;49.770;9.250;2022-11-20T08:01:02;2.70;99.90
67273;DHT22;54190;49.770;9.250;2022-11-20T08:03:27;2.70;99.90
67273;DHT22;54190;49.770;9.250;2022-11-20T08:05:53;2.70;99.90
67273;DHT22;54190;49.770;9.250;2022-11-20T08:08:18;2.70;99.90
67273;DHT22;54190;49.770;9.250;2022-11-20T08:10:45;2.70;99.90
67273;DHT22;54190;49.770;9.250;2022-11-20T08:13:13;2.80;99.90
67273;DHT22;54190;49.770;9.250;2022-11-20T08:15:58;2.80;99.90
67273;DHT22;54190;49.770;9.250;2022-11-20T08:18:23;2.70;99.90
67273;DHT22;54190;49.770;9.250;2022-11-20T08:20:49;2.70;99.90
67273;DHT22;54190;49.770;9.250;2022-11-20T08:23:14;2.70;99.90
67273;DHT22;54190;49.770;9.250;2022-11-20T08:25:40;2.70;99.90
67273;DHT22;54190;49.770;9.250;2022-11-20T08:28:08;2.70;99.90
67273;DHT22;54190;49.770;9.250;2022-11-20T08:30:35;2.70;99.90
67273;DHT22;54190;49.770;9.250;2022-11-20T08:33:04;2.70;99.90
67273;DHT22;54190;49.770;9.250;2022-11-20T08:35:33;2.60;99.90
67273;DHT22;54190;49.770;9.250;2022-11-20T08:38:00;2.60;99.90
67273;DHT22;54190;49.770;9.250;2022-11-20T08:40:26;2.60;99.90
67273;DHT22;54190;49.770;9.250;2022-11-20T08:42:52;2.60;99.90
67273;DHT22;54190;49.770;9.250;2022-11-20T08:45:18;2.50;99.90
67273;DHT22;54190;49.770;9.250;2022-11-20T08:47:44;2.40;99.90
67273;DHT22;54190;49.770;9.250;2022-11-20T08:50:13;2.40;99.90
67273;DHT22;54190;49.770;9.250;2022-11-20T08:52:39;2.40;99.90
67273;DHT22;54190;49.770;9.250;2022-11-20T08:55:05;2.40;99.90
67273;DHT22;54190;49.770;9.250;2022-11-20T08:57:35;2.40;99.90
67273;DHT22;54190;49.770;9.250;2022-11-20T09:00:03;2.40;99.90
67273;DHT22;54190;49.770;9.250;2022-11-20T09:02:28;2.40;99.90
67273;DHT22;54190;49.770;9.250;2022-11-20T09:04:54;2.50;99.90
67273;DHT22;54190;49.770;9.250;2022-11-20T09:07:20;2.50;99.90
67273;DHT22;54190;49.770;9.250;2022-11-20T09:09:46;2.60;99.90
67273;DHT22;54190;49.770;9.250;2022-11-20T09:12:11;2.60;99.90
67273;DHT22;54190;49.770;9.250;2022-11-20T09:14:37;2.60;99.90
67273;DHT22;54190;49.770;9.250;2022-11-20T09:17:03;2.60;99.90
67273;DHT22;54190;49.770;9.250;2022-11-20T09:19:28;2.60;99.90
67273;DHT22;54190;49.770;9.250;2022-11-20T09:21:54;2.60;99.90
67273;DHT22;54190;49.770;9.250;2022-11-20T09:24:19;2.60;99.90
67273;DHT22;54190;49.770;9.250;2022-11-20T09:26:48;2.60;99.90
67273;DHT22;54190;49.770;9.250;2022-11-20T09:29:13;2.60;99.90
67273;DHT22;54190;49.770;9.250;2022-11-20T09:31:39;2.60;99.90
67273;DHT22;54190;49.770;9.250;2022-11-20T09:34:05;2.60;99.90
67273;DHT22;54190;49.770;9.250;2022-11-20T09:36:30;2.60;99.90
67273;DHT22;54190;49.770;9.250;2022-11-20T09:38:56;2.60;99.90
67273;DHT22;54190;49.770;9.250;2022-11-20T09:44:47;2.70;99.90
67273;DHT22;54190;49.770;9.250;2022-11-20T09:47:32;2.70;99.90
67273;DHT22;54190;49.770;9.250;2022-11-20T09:53:04;2.80;99.90
67273;DHT22;54190;49.770;9.250;2022-11-20T09:55:34;2.80;99.90
67273;DHT22;54190;49.770;9.250;2022-11-20T09:58:00;2.90;99.90
67273;DHT22;54190;49.770;9.250;2022-11-20T10:00:28;2.90;99.90
67273;DHT22;54190;49.770;9.250;2022-11-20T10:03:10;2.90;99.90
67273;DHT22;54190;49.770;9.250;2022-11-20T10:05:46;3.00;99.90
67273;DHT22;54190;49.770;9.250;2022-11-20T10:08:29;2.90;99.90
67273;DHT22;54190;49.770;9.250;2022-11-20T10:11:27;2.90;99.90
67273;DHT22;54190;49.770;9.250;2022-11-20T10:14:08;2.80;99.90
67273;DHT22;54190;49.770;9.250;2022-11-20T10:16:41;2.90;99.90
67273;DHT22;54190;49.770;9.250;2022-11-20T10:19:20;3.20;99.90
67273;DHT22;54190;49.770;9.250;2022-11-20T10:30:11;3.90;99.90
67273;DHT22;54190;49.770;9.250;2022-11-20T10:32:40;3.90;99.90
67273;DHT22;54190;49.770;9.250;2022-11-20T10:37:42;3.70;99.90
67273;DHT22;54190;49.770;9.250;2022-11-20T10:42:58;3.60;99.90
67273;DHT22;54190;49.770;9.250;2022-11-20T10:48:11;3.50;99.90
67273;DHT22;54190;49.770;9.250;2022-11-20T10:51:31;3.50;99.90
67273;DHT22;54190;49.770;9.250;2022-11-20T10:59:41;3.50;99.90
67273;DHT22;54190;49.770;9.250;2022-11-20T11:02:23;3.40;99.90
67273;DHT22;54190;49.770;9.250;2022-11-20T11:04:51;3.40;99.90
67273;DHT22;54190;49.770;9.250;2022-11-20T11:07:22;3.40;99.90
67273;DHT22;54190;49.770;9.250;2022-11-20T11:09:57;3.40;99.90
67273;DHT22;54190;49.770;9.250;2022-11-20T11:12:28;3.40;99.90
67273;DHT22;54190;49.770;9.250;2022-11-20T11:14:57;3.40;99.90
67273;DHT22;54190;49.770;9.250;2022-11-20T11:17:27;3.40;99.90
67273;DHT22;54190;49.770;9.250;2022-11-20T11:20:19;3.40;99.90
67273;DHT22;54190;49.770;9.250;2022-11-20T11:25:30;3.40;99.90
67273;DHT22;54190;49.770;9.250;2022-11-20T11:28:01;3.50;99.90
67273;DHT22;54190;49.770;9.250;2022-11-20T11:30:29;3.50;99.90
67273;DHT22;54190;49.770;9.250;2022-11-20T11:33:04;3.50;99.90
67273;DHT22;54190;49.770;9.250;2022-11-20T11:35:30;3.50;99.90
67273;DHT22;54190;49.770;9.250;2022-11-20T11:38:11;3.50;99.90
67273;DHT22;54190;49.770;9.250;2022-11-20T11:40:39;3.60;99.90
67273;DHT22;54190;49.770;9.250;2022-11-20T11:43:16;3.60;99.90
67273;DHT22;54190;49.770;9.250;2022-11-20T11:46:02;3.60;99.90
67273;DHT22;54190;49.770;9.250;2022-11-20T11:48:30;3.60;99.90
67273;DHT22;54190;49.770;9.250;2022-11-20T11:50:56;3.60;99.90
67273;DHT22;54190;49.770;9.250;2022-11-20T11:53:23;3.70;99.90
67273;DHT22;54190;49.770;9.250;2022-11-20T11:55:56;3.70;99.90
67273;DHT22;54190;49.770;9.250;2022-11-20T11:58:33;3.70;99.90
67273;DHT22;54190;49.770;9.250;2022-11-20T12:01:12;3.60;99.90
67273;DHT22;54190;49.770;9.250;2022-11-20T12:03:46;3.70;99.90
67273;DHT22;54190;49.770;9.250;2022-11-20T12:06:15;3.70;99.90
67273;DHT22;54190;49.770;9.250;2022-11-20T12:08:46;3.80;99.90
67273;DHT22;54190;49.770;9.250;2022-11-20T12:11:31;3.80;99.90
67273;DHT22;54190;49.770;9.250;2022-11-20T12:13:58;3.80;99.90
67273;DHT22;54190;49.770;9.250;2022-11-20T12:16:32;3.80;99.90
67273;DHT22;54190;49.770;9.250;2022-11-20T12:19:00;3.90;99.90
67273;DHT22;54190;49.770;9.250;2022-11-20T12:21:36;3.90;99.90
67273;DHT22;54190;49.770;9.250;2022-11-20T12:24:15;3.90;99.90
67273;DHT22;54190;49.770;9.250;2022-11-20T12:32:46;3.90;99.90
67273;DHT22;54190;49.770;9.250;2022-11-20T12:44:58;4.00;99.90
67273;DHT22;54190;49.770;9.250;2022-11-20T12:50:14;4.00;99.90
67273;DHT22;54190;49.770;9.250;2022-11-20T12:53:05;4.10;99.90
67273;DHT22;54190;49.770;9.250;2022-11-20T13:01:18;4.10;99.90
67273;DHT22;54190;49.770;9.250;2022-11-20T13:04:32;4.20;99.90
67273;DHT22;54190;49.770;9.250;2022-11-20T13:07:11;4.20;99.90
67273;DHT22;54190;49.770;9.250;2022-11-20T13:09:48;4.20;99.90
67273;DHT22;54190;49.770;9.250;2022-11-20T13:17:42;4.30;99.90
67273;DHT22;54190;49.770;9.250;2022-11-20T13:20:16;4.40;99.90
67273;DHT22;54190;49.770;9.250;2022-11-20T13:22:50;4.50;99.90
67273;DHT22;54190;49.770;9.250;2022-11-20T13:25:24;4.40;99.90
67273;DHT22;54190;49.770;9.250;2022-11-20T13:27:50;4.40;99.90
67273;DHT22;54190;49.770;9.250;2022-11-20T13:30:22;4.40;99.90
67273;DHT22;54190;49.770;9.250;2022-11-20T13:32:50;4.30;99.90
67273;DHT22;54190;49.770;9.250;2022-11-20T13:35:31;4.30;99.90
67273;DHT22;54190;49.770;9.250;2022-11-20T13:38:12;4.50;99.90
67273;DHT22;54190;49.770;9.250;2022-11-20T13:40:54;4.60;99.90
67273;DHT22;54190;49.770;9.250;2022-11-20T13:43:38;4.60;99.90
67273;DHT22;54190;49.770;9.250;2022-11-20T13:46:08;4.60;99.90
67273;DHT22;54190;49.770;9.250;2022-11-20T13:48:43;4.70;99.90
67273;DHT22;54190;49.770;9.250;2022-11-20T13:57:25;4.70;99.90
67273;DHT22;54190;49.770;9.250;2022-11-20T13:59:59;4.70;99.90
67273;DHT22;54190;49.770;9.250;2022-11-20T14:02:36;4.70;99.90
67273;DHT22;54190;49.770;9.250;2022-11-20T14:05:03;4.70;99.90
67273;DHT22;54190;49.770;9.250;2022-11-20T14:07:37;4.70;99.90
67273;DHT22;54190;49.770;9.250;2022-11-20T14:10:05;4.70;99.90
67273;DHT22;54190;49.770;9.250;2022-11-20T14:12:32;4.80;99.90
67273;DHT22;54190;49.770;9.250;2022-11-20T14:14:59;4.80;99.90
67273;DHT22;54190;49.770;9.250;2022-11-20T14:19:55;4.90;99.90
67273;DHT22;54190;49.770;9.250;2022-11-20T14:22:25;4.90;99.90
67273;DHT22;54190;49.770;9.250;2022-11-20T14:25:17;4.90;99.90
67273;DHT22;54190;49.770;9.250;2022-11-20T14:27:48;5.00;99.90
67273;DHT22;54190;49.770;9.250;2022-11-20T14:30:18;5.00;99.90
67273;DHT22;54190;49.770;9.250;2022-11-20T14:32:45;5.00;99.90
67273;DHT22;54190;49.770;9.250;2022-11-20T14:35:33;5.00;99.90
67273;DHT22;54190;49.770;9.250;2022-11-20T14:38:01;5.10;99.90
67273;DHT22;54190;49.770;9.250;2022-11-20T14:40:35;5.10;99.90
67273;DHT22;54190;49.770;9.250;2022-11-20T14:43:04;5.10;99.90
67273;DHT22;54190;49.770;9.250;2022-11-20T14:45:40;5.10;99.90
67273;DHT22;54190;49.770;9.250;2022-11-20T14:48:09;5.10;99.90
67273;DHT22;54190;49.770;9.250;2022-11-20T14:50:38;5.10;99.90
67273;DHT22;54190;49.770;9.250;2022-11-20T14:53:04;5.10;99.90
67273;DHT22;54190;49.770;9.250;2022-11-20T14:58:41;5.10;99.90
67273;DHT22;54190;49.770;9.250;2022-11-20T15:00:42;5.10;99.90
67273;DHT22;54190;49.770;9.250;2022-11-20T15:03:18;5.10;99.90
67273;DHT22;54190;49.770;9.250;2022-11-20T15:05:47;5.10;99.90
67273;DHT22;54190;49.770;9.250;2022-11-20T15:08:14;5.10;99.90
67273;DHT22;54190;49.770;9.250;2022-11-20T15:10:46;5.10;99.90
67273;DHT22;54190;49.770;9.250;2022-11-20T15:13:16;5.10;99.90
67273;DHT22;54190;49.770;9.250;2022-11-20T15:15:46;5.10;99.90
67273;DHT22;54190;49.770;9.250;2022-11-20T15:18:27;5.10;99.90
67273;DHT22;54190;49.770;9.250;2022-11-20T15:20:55;5.10;99.90
67273;DHT22;54190;49.770;9.250;2022-11-20T15:23:21;5.10;99.90
67273;DHT22;54190;49.770;9.250;2022-11-20T15:25:48;5.20;99.90
67273;DHT22;54190;49.770;9.250;2022-11-20T15:28:21;5.10;99.90
67273;DHT22;54190;49.770;9.250;2022-11-20T15:30:49;5.10;99.90
67273;DHT22;54190;49.770;9.250;2022-11-20T15:33:16;5.10;99.90
67273;DHT22;54190;49.770;9.250;2022-11-20T15:35:42;5.10;99.90
67273;DHT22;54190;49.770;9.250;2022-11-20T15:38:08;5.10;99.90
67273;DHT22;54190;49.770;9.250;2022-11-20T15:40:34;5.10;99.90
67273;DHT22;54190;49.770;9.250;2022-11-20T15:42:59;5.10;99.90
67273;DHT22;54190;49.770;9.250;2022-11-20T15:45:30;5.10;99.90
67273;DHT22;54190;49.770;9.250;2022-11-20T15:47:58;5.10;99.90
67273;DHT22;54190;49.770;9.250;2022-11-20T15:50:29;5.10;99.90
67273;DHT22;54190;49.770;9.250;2022-11-20T15:52:56;5.00;99.90
67273;DHT22;54190;49.770;9.250;2022-11-20T15:55:21;5.00;99.90
67273;DHT22;54190;49.770;9.250;2022-11-20T15:57:47;4.90;99.90
67273;DHT22;54190;49.770;9.250;2022-11-20T16:00:13;4.80;99.90
67273;DHT22;54190;49.770;9.250;2022-11-20T16:02:39;4.80;99.90
67273;DHT22;54190;49.770;9.250;2022-11-20T16:05:10;4.80;99.90
67273;DHT22;54190;49.770;9.250;2022-11-20T16:07:36;4.80;99.90
67273;DHT22;54190;49.770;9.250;2022-11-20T16:10:02;4.80;99.90
67273;DHT22;54190;49.770;9.250;2022-11-20T16:12:28;4.70;99.90
67273;DHT22;54190;49.770;9.250;2022-11-20T16:15:13;4.70;99.90
67273;DHT22;54190;49.770;9.250;2022-11-20T16:17:57;4.70;99.90
67273;DHT22;54190;49.770;9.250;2022-11-20T16:20:23;4.60;99.90
67273;DHT22;54190;49.770;9.250;2022-11-20T16:22:50;4.60;99.90
67273;DHT22;54190;49.770;9.250;2022-11-20T16:25:16;4.50;99.90
67273;DHT22;54190;49.770;9.250;2022-11-20T16:27:42;4.50;99.90
67273;DHT22;54190;49.770;9.250;2022-11-20T16:30:08;4.50;99.90
67273;DHT22;54190;49.770;9.250;2022-11-20T16:32:34;4.40;99.90
67273;DHT22;54190;49.770;9.250;2022-11-20T16:34:59;4.40;99.90
67273;DHT22;54190;49.770;9.250;2022-11-20T16:37:25;4.30;99.90
67273;DHT22;54190;49.770;9.250;2022-11-20T16:39:51;4.30;99.90
67273;DHT22;54190;49.770;9.250;2022-11-20T16:42:16;4.20;99.90
67273;DHT22;54190;49.770;9.250;2022-11-20T16:44:45;4.20;99.90
67273;DHT22;54190;49.770;9.250;2022-11-20T16:47:11;4.20;99.90
67273;DHT22;54190;49.770;9.250;2022-11-20T16:49:36;4.20;99.90
67273;DHT22;54190;49.770;9.250;2022-11-20T16:52:02;4.20;99.90
67273;DHT22;54190;49.770;9.250;2022-11-20T16:54:27;4.30;99.90
67273;DHT22;54190;49.770;9.250;2022-11-20T16:56:53;4.30;99.90
67273;DHT22;54190;49.770;9.250;2022-11-20T16:59:19;4.30;99.90
67273;DHT22;54190;49.770;9.250;2022-11-20T17:01:44;4.40;99.90
67273;DHT22;54190;49.770;9.250;2022-11-20T17:04:10;4.30;99.90
67273;DHT22;54190;49.770;9.250;2022-11-20T17:06:38;4.30;99.90
67273;DHT22;54190;49.770;9.250;2022-11-20T17:09:05;4.30;99.90
67273;DHT22;54190;49.770;9.250;2022-11-20T17:11:34;4.30;99.90
67273;DHT22;54190;49.770;9.250;2022-11-20T17:14:00;4.40;99.90
67273;DHT22;54190;49.770;9.250;2022-11-20T17:16:32;4.40;99.90